Time;durP1;ratioP1;P1;durP2;ratioP2;P2;SDS_P1;SDS_P2;PMS_P1;PMS_P2;Temp;Humidity;BMP_temperature;BMP_pressure;BME280_temperature;BME280_humidity;BME280_pressure;Samples;Min_cycle;Max_cycle;Signal;HPM_P1;HPM_P2
2021/10/05 00:01:30;;;;;;;33.00;20.27;;;308.00;2304.00;;;;;;4957920;28;20088;-90
2021/10/05 00:03:58;;;;;;;32.03;20.40;;;308.00;2304.00;;;;;;4980505;28;20114;-90
2021/10/05 00:06:27;;;;;;;33.17;24.13;;;308.00;2304.00;;;;;;4995764;28;20050;-88
2021/10/05 00:08:53;;;;;;;32.35;21.15;;;308.00;2304.00;;;;;;4979658;28;20565;-88
2021/10/05 00:11:22;;;;;;;32.97;20.65;;;308.00;2304.00;;;;;;4996323;28;20034;-90
2021/10/05 00:14:11;;;;;;;31.30;21.98;;;307.90;2304.00;;;;;;4979044;28;20023;-88
2021/10/05 00:16:42;;;;;;;34.75;21.85;;;307.60;2304.00;;;;;;4994166;28;20038;-88
2021/10/05 00:19:34;;;;;;;28.23;21.80;;;307.60;2304.00;;;;;;4970430;28;20053;-88
2021/10/05 00:22:06;;;;;;;30.60;20.75;;;307.60;2304.00;;;;;;4995592;28;20023;-89
2021/10/05 00:24:34;;;;;;;31.55;23.48;;;307.80;2304.00;;;;;;4979638;28;20363;-88
2021/10/05 00:27:11;;;;;;;30.05;21.63;;;307.80;2304.00;;;;;;4979217;28;20522;-88
2021/10/05 00:29:58;;;;;;;33.40;22.45;;;307.90;2304.00;;;;;;4996122;28;20035;-88
2021/10/05 00:32:45;;;;;;;27.77;20.42;;;307.90;2304.00;;;;;;4995412;28;20023;-89
2021/10/05 00:35:34;;;;;;;35.60;22.77;;;307.80;2304.00;;;;;;4961233;28;20039;-89
2021/10/05 00:38:07;;;;;;;29.92;20.55;;;307.90;2304.00;;;;;;4994868;28;20038;-89
2021/10/05 00:41:00;;;;;;;30.98;21.98;;;307.80;2304.00;;;;;;4996208;28;20060;-88
2021/10/05 00:43:38;;;;;;;26.23;20.85;;;307.50;2304.00;;;;;;4984081;28;20042;-88
2021/10/05 00:46:44;;;;;;;30.17;20.13;;;307.30;2304.00;;;;;;4986494;28;20443;-88
2021/10/05 00:49:26;;;;;;;27.75;18.48;;;307.30;2304.00;;;;;;4995958;28;20042;-88
2021/10/05 00:52:49;;;;;;;;;;;;;;;;;;;;;
2021/10/05 00:55:27;;;;;;;29.60;20.23;;;282.50;2278.40;;;;;;4916727;29;20043;-89
2021/10/05 00:58:46;;;;;;;27.20;18.02;;;282.50;2278.40;;;;;;4902737;29;20044;-90
2021/10/05 01:01:21;;;;;;;34.72;18.17;;;282.20;2278.40;;;;;;4895751;29;20037;-89
2021/10/05 01:11:19;;;;;;;26.77;17.13;;;282.50;2278.40;;;;;;4844547;29;20049;-89
2021/10/05 01:14:07;;;;;;;23.60;16.10;;;307.20;2304.00;;;;;;4828249;29;20511;-89
2021/10/05 01:17:04;;;;;;;26.48;15.98;;;282.50;2278.40;;;;;;4823678;29;20323;-89
2021/10/05 01:20:07;;;;;;;;;;;;;;;;;;;;;
2021/10/05 01:23:56;;;;;;;;;;;;;;;;;;;;;
2021/10/05 01:29:52;;;;;;;27.45;17.25;;;282.30;2278.40;;;;;;4861500;29;20029;-89
2021/10/05 01:36:41;;;;;;;22.23;15.25;;;281.80;2278.40;;;;;;4860843;29;20082;-89
2021/10/05 01:42:35;;;;;;;22.25;16.00;;;281.90;2278.40;;;;;;4897968;29;20060;-90
2021/10/05 01:45:30;;;;;;;24.40;15.77;;;281.90;2278.40;;;;;;4897732;29;20045;-89
2021/10/05 01:54:24;;;;;;;24.45;16.08;;;281.90;2278.40;;;;;;4898079;29;20462;-88
2021/10/05 01:58:03;;;;;;;21.58;15.00;;;281.90;2278.40;;;;;;4842263;29;20102;-89
2021/10/05 02:01:20;;;;;;;23.75;16.25;;;281.90;2278.40;;;;;;4913383;29;20039;-89
2021/10/05 02:05:20;;;;;;;25.77;16.48;;;256.90;2252.80;;;;;;4905733;29;20039;-89
2021/10/05 02:33:49;;;;;;;24.88;16.50;;;256.60;2252.80;;;;;;4867858;29;20047;-88
2021/10/05 02:37:01;;;;;;;25.33;15.63;;;256.60;2252.80;;;;;;4878453;29;20114;-89
2021/10/05 02:40:22;;;;;;;25.98;16.42;;;256.80;2252.80;;;;;;4897197;29;20119;-89
2021/10/05 02:43:20;;;;;;;23.40;16.77;;;256.70;2252.80;;;;;;4877193;29;20115;-89
2021/10/05 02:56:59;;;;;;;29.52;17.75;;;256.50;2252.80;;;;;;4935018;29;20066;-89
2021/10/05 03:03:34;;;;;;;25.58;16.70;;;256.50;2252.80;;;;;;4921556;29;20099;-89
2021/10/05 03:06:58;;;;;;;27.08;17.25;;;256.50;2252.80;;;;;;4916440;29;20036;-88
2021/10/05 03:10:14;;;;;;;30.88;17.40;;;256.00;2252.80;;;;;;4789725;29;20040;-87
2021/10/05 03:35:24;;;;;;;27.17;17.40;;;231.30;2252.80;;;;;;4878195;29;20077;-88
2021/10/05 03:39:08;;;;;;;22.38;16.63;;;256.10;2252.80;;;;;;4859759;29;20064;-89
2021/10/05 03:42:49;;;;;;;26.90;17.02;;;256.30;2252.80;;;;;;4780720;30;20065;-88
2021/10/05 03:46:21;;;;;;;26.58;16.05;;;256.20;2252.80;;;;;;4730428;30;20132;-89
2021/10/05 03:49:41;;;;;;;21.15;15.63;;;256.30;2252.80;;;;;;4789351;29;20114;-88
2021/10/05 03:52:57;;;;;;;25.80;17.52;;;256.30;2252.80;;;;;;4753875;30;20043;-89
2021/10/05 03:56:32;;;;;;;26.48;17.13;;;256.40;2252.80;;;;;;4736459;30;20037;-90
2021/10/05 04:00:05;;;;;;;27.67;17.08;;;256.40;2252.80;;;;;;4735268;30;20428;-89
2021/10/05 04:03:27;;;;;;;25.95;17.70;;;256.40;2252.80;;;;;;4754098;30;20058;-88
2021/10/05 04:07:07;;;;;;;29.52;19.20;;;231.30;2252.80;;;;;;4753621;30;20497;-88
2021/10/05 04:10:41;;;;;;;43.10;23.92;;;231.10;2252.80;;;;;;4735926;30;20044;-89
2021/10/05 04:14:10;;;;;;;38.25;21.02;;;231.10;2252.80;;;;;;4750891;30;20518;-89
2021/10/05 04:21:47;;;;;;;28.73;17.95;;;230.90;2252.80;;;;;;4743736;30;20053;-89
2021/10/05 04:28:15;;;;;;;33.45;19.20;;;230.90;2252.80;;;;;;4740378;30;20079;-88
2021/10/05 04:31:43;;;;;;;31.65;18.42;;;230.80;2252.80;;;;;;4672325;30;20455;-88
2021/10/05 04:34:47;;;;;;;26.20;17.63;;;230.70;2252.80;;;;;;4708989;30;20042;-88
2021/10/05 04:55:58;;;;;;;48.45;33.55;;;230.60;2252.80;;;;;;4759420;30;20039;-90
2021/10/05 04:59:01;;;;;;;36.22;22.85;;;230.60;2252.80;;;;;;4761054;30;20104;-88
2021/10/05 05:08:59;;;;;;;54.58;32.05;;;230.40;2252.80;;;;;;4801582;29;20047;-89
2021/10/05 05:15:29;;;;;;;30.83;21.27;;;230.70;2252.80;;;;;;4812911;29;20079;-89
2021/10/05 06:10:27;;;;;;;37.83;23.38;;;230.60;2252.80;;;;;;4891722;29;20057;-87
2021/10/05 06:17:04;;;;;;;36.25;22.40;;;231.10;2252.80;;;;;;4872417;29;20056;-89
2021/10/05 06:26:47;;;;;;;28.25;19.85;;;256.00;2252.80;;;;;;4907769;29;20479;-88
2021/10/05 06:33:30;;;;;;;;;;;;;;;;;;;;;
2021/10/05 06:50:21;;;;;;;40.25;24.60;;;256.90;2252.80;;;;;;4810167;29;20115;-89
2021/10/05 06:57:18;;;;;;;29.00;21.13;;;282.00;2278.40;;;;;;4785093;29;20119;-89
2021/10/05 07:01:15;;;;;;;28.27;18.73;;;282.30;2278.40;;;;;;4788257;30;20062;-88
2021/10/05 07:08:19;;;;;;;29.20;19.05;;;307.40;2304.00;;;;;;4805751;29;20038;-88
2021/10/05 07:11:31;;;;;;;31.77;20.00;;;307.60;2304.00;;;;;;4781190;30;20055;-88
2021/10/05 07:14:56;;;;;;;34.73;21.97;;;307.80;2304.00;;;;;;4791014;29;20066;-90
2021/10/05 07:18:13;;;;;;;34.35;21.23;;;308.10;2304.00;;;;;;4808622;29;20500;-90
2021/10/05 07:21:04;;;;;;;28.85;18.65;;;332.80;2329.60;;;;;;4694701;30;20050;-86
2021/10/05 07:23:36;;;;;;;24.83;19.07;;;332.90;2329.60;;;;;;4724145;30;20059;-83
2021/10/05 07:26:02;;;;;;;23.92;18.77;;;307.90;2304.00;;;;;;4799789;29;20039;-82
2021/10/05 07:28:34;;;;;;;29.42;19.95;;;333.20;2329.60;;;;;;4844469;29;20085;-85
2021/10/05 07:37:32;;;;;;;27.65;19.02;;;333.40;2329.60;;;;;;4862578;29;20033;-84
2021/10/05 07:40:10;;;;;;;25.95;17.00;;;333.60;2329.60;;;;;;4881570;29;20037;-86
2021/10/05 07:42:39;;;;;;;19.35;14.45;;;333.70;2329.60;;;;;;4904324;29;20523;-86
2021/10/05 07:45:15;;;;;;;18.73;13.82;;;358.50;2329.60;;;;;;4918671;29;20142;-85
2021/10/05 07:47:45;;;;;;;19.65;14.52;;;358.60;2329.60;;;;;;4921680;29;20484;-83
2021/10/05 07:50:12;;;;;;;18.10;13.73;;;358.80;2329.60;;;;;;4918810;29;20066;-82
2021/10/05 07:52:41;;;;;;;20.38;14.10;;;358.90;2329.60;;;;;;4937732;29;20032;-82
2021/10/05 07:55:08;;;;;;;28.70;15.30;;;359.00;2329.60;;;;;;4937206;29;20558;-82
2021/10/05 07:57:48;;;;;;;17.80;12.73;;;359.10;2329.60;;;;;;4936233;29;20587;-80
2021/10/05 08:00:25;;;;;;;20.85;14.10;;;359.30;2329.60;;;;;;4921864;29;20044;-83
2021/10/05 08:02:51;;;;;;;22.05;17.10;;;384.00;2329.60;;;;;;4955327;29;20027;-80
2021/10/05 08:05:20;;;;;;;19.63;13.98;;;384.10;2329.60;;;;;;4960286;28;20077;-80
2021/10/05 08:07:54;;;;;;;19.77;14.60;;;384.30;2329.60;;;;;;4959887;29;20035;-80
2021/10/05 08:10:20;;;;;;;23.30;18.10;;;384.40;2329.60;;;;;;4941486;29;20027;-81
2021/10/05 08:12:46;;;;;;;31.02;21.27;;;384.60;2329.60;;;;;;4953169;29;20182;-82
2021/10/05 08:15:12;;;;;;;36.95;26.95;;;384.60;2329.60;;;;;;4957244;29;20028;-78
2021/10/05 08:17:39;;;;;;;34.90;24.13;;;384.70;2329.60;;;;;;4960247;29;20078;-83
2021/10/05 08:20:06;;;;;;;23.27;16.23;;;384.90;2329.60;;;;;;4957118;29;20121;-80
2021/10/05 08:22:32;;;;;;;22.70;14.52;;;409.80;2355.20;;;;;;4954631;29;20023;-80
2021/10/05 08:25:04;;;;;;;19.83;13.60;;;410.00;2355.20;;;;;;4953205;29;20035;-81
2021/10/05 08:27:30;;;;;;;21.17;12.82;;;410.00;2355.20;;;;;;4946030;29;20028;-80
2021/10/05 08:30:05;;;;;;;22.17;13.52;;;410.10;2355.20;;;;;;4941141;29;20115;-84
2021/10/05 08:32:31;;;;;;;15.65;11.05;;;410.20;2355.20;;;;;;4922709;29;20039;-83
2021/10/05 08:34:57;;;;;;;17.45;12.18;;;410.30;2355.20;;;;;;4937110;29;20417;-82
2021/10/05 08:37:22;;;;;;;17.88;12.88;;;410.50;2355.20;;;;;;4936425;29;20059;-83
2021/10/05 08:39:48;;;;;;;15.73;10.63;;;435.30;2355.20;;;;;;4935924;29;20099;-81
2021/10/05 08:42:14;;;;;;;16.13;12.10;;;435.50;2355.20;;;;;;4936082;29;20524;-84
2021/10/05 08:44:40;;;;;;;17.15;12.63;;;435.50;2355.20;;;;;;4936304;29;20459;-80
2021/10/05 08:47:06;;;;;;;16.77;10.23;;;435.60;2355.20;;;;;;4935810;29;20078;-81
2021/10/05 08:49:32;;;;;;;13.88;10.90;;;435.70;2355.20;;;;;;4967176;28;20030;-82
2021/10/05 08:51:57;;;;;;;16.40;9.55;;;435.80;2355.20;;;;;;4977250;28;20038;-81
2021/10/05 08:54:24;;;;;;;13.90;10.23;;;436.00;2355.20;;;;;;4993743;28;20062;-81
2021/10/05 08:56:49;;;;;;;11.98;9.43;;;436.10;2355.20;;;;;;4993064;28;20026;-82
2021/10/05 08:59:16;;;;;;;12.38;9.52;;;460.80;2380.80;;;;;;4993802;28;20363;-82
2021/10/05 09:01:41;;;;;;;13.93;9.35;;;461.20;2380.80;;;;;;4993269;28;20050;-80
2021/10/05 09:04:08;;;;;;;13.00;9.32;;;461.10;2380.80;;;;;;4993217;28;20114;-81
2021/10/05 09:06:36;;;;;;;16.67;11.90;;;461.10;2380.80;;;;;;4995157;28;20129;-80
2021/10/05 09:09:04;;;;;;;18.90;15.18;;;461.30;2380.80;;;;;;4993356;28;20045;-82
2021/10/05 09:11:51;;;;;;;17.25;12.50;;;461.40;2380.80;;;;;;4993111;28;20073;-81
2021/10/05 09:14:17;;;;;;;16.45;10.70;;;461.40;2380.80;;;;;;4994382;28;20041;-80
2021/10/05 09:16:43;;;;;;;16.55;9.95;;;461.40;2380.80;;;;;;4977187;28;20030;-81
2021/10/05 09:19:15;;;;;;;13.40;9.10;;;461.40;2380.80;;;;;;4992700;28;20466;-81
2021/10/05 09:21:54;;;;;;;17.25;9.85;;;461.30;2380.80;;;;;;4994267;28;20026;-81
2021/10/05 09:24:28;;;;;;;16.30;10.38;;;461.50;2380.80;;;;;;4993453;28;20041;-81
2021/10/05 09:27:00;;;;;;;17.05;12.82;;;461.60;2380.80;;;;;;4976791;28;20426;-82
2021/10/05 09:29:37;;;;;;;22.65;11.52;;;486.40;2380.80;;;;;;4994254;28;20030;-80
2021/10/05 09:32:09;;;;;;;11.48;9.20;;;486.70;2380.80;;;;;;4992684;28;20089;-82
2021/10/05 09:34:54;;;;;;;16.33;11.38;;;486.70;2380.80;;;;;;4994132;28;20026;-84
2021/10/05 09:37:34;;;;;;;12.07;10.02;;;486.90;2380.80;;;;;;4993240;28;20452;-82
2021/10/05 09:40:03;;;;;;;13.57;9.27;;;487.00;2380.80;;;;;;4992416;28;20042;-81
2021/10/05 09:42:39;;;;;;;20.45;12.60;;;486.90;2380.80;;;;;;4993983;28;20034;-81
2021/10/05 09:45:24;;;;;;;17.60;12.07;;;487.10;2380.80;;;;;;4992898;28;20033;-80
2021/10/05 09:47:58;;;;;;;13.18;8.70;;;487.30;2380.80;;;;;;4992602;28;20382;-80
2021/10/05 09:50:34;;;;;;;15.30;12.15;;;487.20;2380.80;;;;;;4992573;28;20026;-81
2021/10/05 09:53:00;;;;;;;21.00;13.05;;;487.20;2380.80;;;;;;4992787;28;20026;-82
2021/10/05 09:55:29;;;;;;;15.55;10.30;;;512.00;2380.80;;;;;;4993673;28;20374;-80
2021/10/05 09:57:56;;;;;;;17.38;12.23;;;512.20;2380.80;;;;;;4992594;28;20177;-81
2021/10/05 10:00:24;;;;;;;18.77;13.23;;;512.00;2380.80;;;;;;4992471;28;20085;-81
2021/10/05 10:02:50;;;;;;;22.83;11.57;;;512.20;2380.80;;;;;;4992994;28;20117;-81
2021/10/05 10:05:18;;;;;;;18.48;12.40;;;512.30;2380.80;;;;;;4992785;28;20168;-82
2021/10/05 10:07:46;;;;;;;17.23;11.93;;;512.30;2380.80;;;;;;4991726;28;20029;-80
2021/10/05 10:10:14;;;;;;;22.65;13.50;;;512.40;2380.80;;;;;;4992064;28;20498;-80
2021/10/05 10:12:46;;;;;;;16.48;11.80;;;512.50;2380.80;;;;;;4992170;28;20022;-80
2021/10/05 10:15:12;;;;;;;19.75;13.93;;;512.50;2380.80;;;;;;4976289;28;20360;-81
2021/10/05 10:17:39;;;;;;;16.80;12.57;;;512.70;2380.80;;;;;;4991428;28;20108;-81
2021/10/05 10:20:07;;;;;;;18.42;13.43;;;537.70;2406.40;;;;;;4993002;28;20049;-82
2021/10/05 10:22:45;;;;;;;17.00;11.18;;;537.80;2406.40;;;;;;4993719;28;20069;-80
2021/10/05 10:25:29;;;;;;;16.58;12.30;;;537.80;2406.40;;;;;;4992862;28;20030;-82
2021/10/05 10:27:57;;;;;;;12.32;8.00;;;538.00;2406.40;;;;;;4993922;28;20034;-80
2021/10/05 10:30:28;;;;;;;12.90;9.00;;;538.20;2406.40;;;;;;4993798;28;20409;-80
2021/10/05 10:33:03;;;;;;;15.35;8.70;;;538.30;2406.40;;;;;;4991187;28;20019;-80
2021/10/05 10:35:29;;;;;;;13.02;8.70;;;563.20;2432.00;;;;;;4975805;28;20030;-79
2021/10/05 10:37:56;;;;;;;13.25;8.82;;;563.30;2432.00;;;;;;4993240;28;20034;-79
2021/10/05 10:40:34;;;;;;;12.77;9.18;;;563.40;2406.40;;;;;;4991408;28;20045;-80
2021/10/05 10:43:14;;;;;;;17.45;8.95;;;563.50;2406.40;;;;;;4992264;28;20430;-79
2021/10/05 10:45:51;;;;;;;13.80;9.07;;;563.60;2380.80;;;;;;4998101;28;20030;-80
2021/10/05 10:48:33;;;;;;;23.05;9.52;;;563.70;2355.20;;;;;;4997944;28;20079;-78
2021/10/05 10:51:17;;;;;;;15.95;8.77;;;563.90;2329.60;;;;;;4998129;28;20410;-80
2021/10/05 10:53:45;;;;;;;14.32;8.20;;;564.00;2304.00;;;;;;4997864;28;20041;-79
2021/10/05 10:56:15;;;;;;;10.55;8.07;;;588.80;2278.40;;;;;;4997931;28;20113;-80
2021/10/05 10:58:45;;;;;;;12.45;8.27;;;589.10;2278.40;;;;;;4997949;28;20026;-80
2021/10/05 11:01:15;;;;;;;8.90;7.25;;;589.20;2227.20;;;;;;4997661;28;20712;-79
2021/10/05 11:03:42;;;;;;;10.32;6.65;;;589.50;2227.20;;;;;;4998588;28;20026;-79
2021/10/05 11:06:16;;;;;;;9.07;7.18;;;589.50;2176.00;;;;;;4999594;28;20034;-81
2021/10/05 11:08:59;;;;;;;13.23;7.30;;;614.40;2176.00;;;;;;4998328;28;20383;-80
2021/10/05 11:11:30;;;;;;;11.75;8.00;;;614.50;2150.40;;;;;;4998530;28;20041;-80
2021/10/05 11:14:01;;;;;;;15.48;9.20;;;614.80;2124.80;;;;;;4999494;28;20022;-79
2021/10/05 11:16:30;;;;;;;12.15;8.07;;;615.10;2099.20;;;;;;4998189;28;20026;-82
2021/10/05 11:19:16;;;;;;;11.50;7.80;;;615.30;2073.60;;;;;;4998531;28;20057;-80
2021/10/05 11:21:45;;;;;;;13.05;8.75;;;640.20;2022.40;;;;;;4998237;28;20088;-80
2021/10/05 11:24:14;;;;;;;13.30;9.50;;;640.50;1996.80;;;;;;4998150;28;20053;-80
2021/10/05 11:26:49;;;;;;;12.98;9.05;;;640.90;1971.20;;;;;;4998297;28;20675;-80
2021/10/05 11:29:28;;;;;;;11.30;9.15;;;665.90;1945.60;;;;;;5000445;28;20030;-79
2021/10/05 11:31:59;;;;;;;16.83;10.25;;;666.00;1920.00;;;;;;5000903;28;20026;-79
2021/10/05 11:34:27;;;;;;;16.55;9.13;;;666.40;1894.40;;;;;;4999683;28;20038;-79
2021/10/05 11:36:53;;;;;;;17.27;9.00;;;691.20;1868.80;;;;;;4998137;28;20034;-80
2021/10/05 11:39:26;;;;;;;13.45;8.52;;;691.40;1843.20;;;;;;4997828;28;20058;-79
2021/10/05 11:41:55;;;;;;;12.38;7.95;;;691.60;1817.60;;;;;;4998391;28;20433;-79
2021/10/05 11:44:26;;;;;;;14.35;9.80;;;691.80;1817.60;;;;;;4998225;28;20029;-80
2021/10/05 11:47:03;;;;;;;12.35;7.70;;;691.80;1792.00;;;;;;4999261;28;20105;-82
2021/10/05 11:49:32;;;;;;;11.32;9.43;;;691.80;1766.40;;;;;;4997994;28;20030;-82
2021/10/05 11:51:59;;;;;;;13.77;11.10;;;692.00;1766.40;;;;;;4998362;28;20684;-78
2021/10/05 11:54:28;;;;;;;17.83;10.60;;;692.10;1766.40;;;;;;4998169;28;20038;-79
2021/10/05 11:56:56;;;;;;;17.75;9.45;;;716.90;1792.00;;;;;;4994864;28;20026;-79
2021/10/05 11:59:30;;;;;;;15.60;12.13;;;717.10;1766.40;;;;;;4996152;28;20027;-79
2021/10/05 12:02:03;;;;;;;15.50;11.88;;;717.30;1766.40;;;;;;4995763;28;20194;-81
2021/10/05 12:04:29;;;;;;;20.17;11.32;;;717.40;1740.80;;;;;;4996226;28;20034;-80
2021/10/05 12:07:02;;;;;;;13.35;8.85;;;742.50;1715.20;;;;;;4996286;28;20030;-79
2021/10/05 12:09:29;;;;;;;12.85;9.73;;;717.50;1689.60;;;;;;4995970;28;20542;-83
2021/10/05 12:12:02;;;;;;;16.73;11.80;;;717.50;1689.60;;;;;;4996072;28;20030;-78
2021/10/05 12:14:36;;;;;;;14.45;9.82;;;717.60;1689.60;;;;;;4996162;28;20026;-78
2021/10/05 12:17:22;;;;;;;12.70;8.57;;;717.60;1689.60;;;;;;4979863;28;20058;-81
2021/10/05 12:20:00;;;;;;;10.23;7.70;;;717.70;1689.60;;;;;;4993815;28;20038;-82
2021/10/05 12:22:47;;;;;;;10.73;7.30;;;742.50;1689.60;;;;;;4994952;28;20030;-82
2021/10/05 12:25:23;;;;;;;15.60;12.07;;;742.70;1689.60;;;;;;4994726;28;20050;-79
2021/10/05 12:27:51;;;;;;;16.50;10.07;;;742.80;1664.00;;;;;;4994479;28;20034;-79
2021/10/05 12:30:23;;;;;;;14.60;10.05;;;742.70;1689.60;;;;;;4994654;28;20117;-80
2021/10/05 12:32:56;;;;;;;18.15;10.05;;;742.90;1664.00;;;;;;4994850;28;20387;-82
2021/10/05 12:35:30;;;;;;;13.48;9.85;;;742.90;1638.40;;;;;;4994884;28;20034;-82
2021/10/05 12:38:02;;;;;;;11.65;9.32;;;742.80;1638.40;;;;;;4978511;28;20049;-80
2021/10/05 12:40:49;;;;;;;21.88;12.93;;;742.90;1664.00;;;;;;4997161;28;20031;-80
2021/10/05 12:43:21;;;;;;;14.88;9.05;;;742.90;1638.40;;;;;;4980449;28;20035;-80
2021/10/05 12:45:58;;;;;;;13.70;9.88;;;742.90;1612.80;;;;;;4998851;28;20034;-81
2021/10/05 12:48:45;;;;;;;13.85;9.48;;;742.80;1587.20;;;;;;5019093;28;20053;-80
2021/10/05 12:51:11;;;;;;;16.30;9.27;;;742.90;1587.20;;;;;;5019718;28;20014;-81
2021/10/05 12:53:46;;;;;;;11.75;8.63;;;742.90;1587.20;;;;;;5002756;28;20094;-80
2021/10/05 12:56:12;;;;;;;11.13;8.75;;;742.50;1587.20;;;;;;5018613;28;20015;-79
2021/10/05 12:58:39;;;;;;;15.40;9.50;;;742.80;1612.80;;;;;;5018779;28;20070;-81
2021/10/05 13:01:07;;;;;;;14.68;7.45;;;742.80;1587.20;;;;;;5018507;28;20061;-81
2021/10/05 13:03:34;;;;;;;13.85;7.93;;;742.80;1587.20;;;;;;5019326;28;20011;-81
2021/10/05 13:06:00;;;;;;;15.50;8.57;;;742.90;1561.60;;;;;;5018357;28;20046;-78
2021/10/05 13:08:26;;;;;;;10.35;8.43;;;742.90;1561.60;;;;;;4997310;28;20030;-80
2021/10/05 13:10:52;;;;;;;19.60;9.85;;;742.90;1561.60;;;;;;4995026;28;20062;-79
2021/10/05 13:13:18;;;;;;;20.30;11.23;;;742.90;1561.60;;;;;;4995265;28;20042;-80
2021/10/05 13:15:44;;;;;;;17.25;13.30;;;743.00;1561.60;;;;;;4995648;28;20037;-79
2021/10/05 13:18:10;;;;;;;18.13;11.63;;;743.00;1561.60;;;;;;4994852;28;20109;-80
2021/10/05 13:20:37;;;;;;;12.20;9.70;;;743.10;1536.00;;;;;;4994970;28;20067;-83
2021/10/05 13:23:03;;;;;;;16.83;10.88;;;743.00;1536.00;;;;;;4995280;28;20026;-81
2021/10/05 13:25:29;;;;;;;12.43;11.13;;;743.10;1536.00;;;;;;4995578;28;20037;-79
2021/10/05 13:27:55;;;;;;;16.80;9.73;;;742.90;1536.00;;;;;;4995172;28;20034;-81
2021/10/05 13:30:22;;;;;;;12.35;10.15;;;743.10;1536.00;;;;;;4995343;28;20481;-80
2021/10/05 13:32:47;;;;;;;12.88;8.82;;;743.00;1536.00;;;;;;4994595;28;20031;-80
2021/10/05 13:35:13;;;;;;;16.23;7.93;;;743.00;1510.40;;;;;;4994866;28;20022;-77
2021/10/05 13:37:46;;;;;;;14.52;8.77;;;742.90;1536.00;;;;;;4995433;28;20462;-80
2021/10/05 13:40:11;;;;;;;19.15;9.15;;;742.80;1536.00;;;;;;4996221;28;20113;-81
2021/10/05 13:42:38;;;;;;;15.60;9.95;;;742.90;1536.00;;;;;;4997988;28;20066;-81
2021/10/05 13:45:06;;;;;;;19.35;11.82;;;742.60;1536.00;;;;;;4998188;28;20027;-79
2021/10/05 13:47:32;;;;;;;14.90;10.88;;;742.70;1536.00;;;;;;4999144;28;20474;-81
2021/10/05 13:49:57;;;;;;;12.05;9.45;;;742.50;1536.00;;;;;;4998347;28;20049;-80
2021/10/05 13:52:23;;;;;;;17.50;7.70;;;742.50;1536.00;;;;;;4996636;28;20027;-80
2021/10/05 13:54:49;;;;;;;13.38;7.25;;;717.70;1510.40;;;;;;4995182;28;20034;-82
2021/10/05 13:57:15;;;;;;;14.30;7.68;;;717.60;1510.40;;;;;;4995239;28;20031;-81
2021/10/05 13:59:41;;;;;;;14.00;8.77;;;717.50;1536.00;;;;;;4994531;28;20041;-79
2021/10/05 14:02:07;;;;;;;14.35;8.73;;;717.50;1561.60;;;;;;4994655;28;20478;-80
2021/10/05 14:04:34;;;;;;;11.65;7.35;;;717.20;1561.60;;;;;;4995709;28;20053;-80
2021/10/05 14:06:59;;;;;;;10.48;7.32;;;717.10;1536.00;;;;;;4995520;28;20532;-81
2021/10/05 14:09:25;;;;;;;11.45;6.95;;;716.90;1561.60;;;;;;4996588;28;20034;-78
2021/10/05 14:11:51;;;;;;;13.13;8.13;;;692.10;1536.00;;;;;;4995479;28;20462;-82
2021/10/05 14:14:17;;;;;;;12.90;7.05;;;691.80;1561.60;;;;;;4995103;28;20446;-79
2021/10/05 14:16:42;;;;;;;15.50;8.73;;;691.60;1561.60;;;;;;4993739;28;20038;-79
2021/10/05 14:19:09;;;;;;;14.35;9.05;;;691.40;1587.20;;;;;;4992885;28;20062;-80
2021/10/05 14:21:35;;;;;;;14.20;7.78;;;691.20;1587.20;;;;;;4993671;28;20124;-79
2021/10/05 14:24:01;;;;;;;11.50;7.30;;;666.30;1612.80;;;;;;4993417;28;20056;-81
2021/10/05 14:26:28;;;;;;;14.73;8.57;;;666.00;1612.80;;;;;;4994716;28;20058;-81
2021/10/05 14:28:54;;;;;;;16.13;8.25;;;665.70;1638.40;;;;;;4993477;28;20037;-81
2021/10/05 14:31:21;;;;;;;16.60;11.40;;;665.60;1638.40;;;;;;4993498;28;20030;-80
2021/10/05 14:33:48;;;;;;;22.35;10.93;;;665.90;1638.40;;;;;;4993533;28;20027;-81
2021/10/05 14:36:14;;;;;;;17.23;9.48;;;640.60;1612.80;;;;;;4993086;28;20142;-79
2021/10/05 14:38:39;;;;;;;14.38;8.85;;;640.50;1638.40;;;;;;4993412;28;20494;-81
2021/10/05 14:41:05;;;;;;;16.35;8.88;;;640.40;1638.40;;;;;;4993307;28;20042;-80
2021/10/05 14:43:31;;;;;;;9.38;7.00;;;640.30;1664.00;;;;;;4992948;28;20030;-79
2021/10/05 14:45:57;;;;;;;12.40;6.85;;;640.10;1638.40;;;;;;4993290;28;20117;-80
2021/10/05 14:48:23;;;;;;;11.27;6.35;;;640.00;1664.00;;;;;;4993495;28;20073;-79
2021/10/05 14:50:49;;;;;;;13.25;8.50;;;615.30;1689.60;;;;;;4992592;28;20390;-80
2021/10/05 14:53:15;;;;;;;11.38;7.57;;;615.20;1689.60;;;;;;4993324;28;20474;-81
2021/10/05 14:55:41;;;;;;;15.40;7.47;;;615.10;1689.60;;;;;;4994248;28;20026;-80
2021/10/05 14:58:07;;;;;;;16.95;9.80;;;615.10;1689.60;;;;;;4993082;28;20030;-81
2021/10/05 15:00:32;;;;;;;19.73;10.00;;;615.00;1715.20;;;;;;4994227;28;20490;-82
2021/10/05 15:02:58;;;;;;;18.38;10.98;;;614.90;1715.20;;;;;;4993374;28;20027;-81
2021/10/05 15:05:24;;;;;;;16.23;11.02;;;614.80;1715.20;;;;;;4976749;28;20030;-80
2021/10/05 15:07:50;;;;;;;20.80;12.98;;;614.70;1715.20;;;;;;4993161;28;20027;-79
2021/10/05 15:10:17;;;;;;;16.88;10.93;;;614.60;1740.80;;;;;;4997519;28;20485;-82
2021/10/05 15:12:44;;;;;;;18.98;12.57;;;614.60;1740.80;;;;;;4993996;28;20029;-78
2021/10/05 15:15:12;;;;;;;27.38;14.55;;;614.40;1740.80;;;;;;4993171;28;20026;-78
2021/10/05 15:17:38;;;;;;;20.88;10.82;;;614.40;1766.40;;;;;;4992805;28;20031;-79
2021/10/05 15:20:07;;;;;;;24.65;15.00;;;589.70;1766.40;;;;;;4976859;28;20031;-80
2021/10/05 15:22:33;;;;;;;21.13;11.23;;;589.60;1766.40;;;;;;4992858;28;20037;-80
2021/10/05 15:25:00;;;;;;;17.40;10.35;;;589.50;1766.40;;;;;;4992703;28;20039;-83
2021/10/05 15:27:26;;;;;;;15.25;10.55;;;589.50;1766.40;;;;;;4976762;28;20027;-81
2021/10/05 15:29:52;;;;;;;19.40;12.10;;;589.50;1792.00;;;;;;4993133;28;20429;-82
2021/10/05 15:32:18;;;;;;;18.73;13.10;;;589.40;1792.00;;;;;;4995445;28;20026;-81
2021/10/05 15:34:44;;;;;;;17.60;11.13;;;589.30;1792.00;;;;;;4996757;28;20453;-81
2021/10/05 15:37:10;;;;;;;27.38;12.25;;;589.20;1792.00;;;;;;4996291;28;20030;-81
2021/10/05 15:39:36;;;;;;;23.95;11.98;;;589.10;1817.60;;;;;;4998058;28;20116;-81
2021/10/05 15:42:02;;;;;;;18.67;12.65;;;589.00;1817.60;;;;;;4996648;28;20462;-78
2021/10/05 15:44:28;;;;;;;25.75;15.63;;;589.00;1817.60;;;;;;4997599;28;20453;-78
2021/10/05 15:46:54;;;;;;;23.02;16.50;;;588.90;1817.60;;;;;;4996628;28;20046;-80
2021/10/05 15:49:21;;;;;;;27.77;16.20;;;588.80;1843.20;;;;;;4997768;28;20049;-78
2021/10/05 15:51:59;;;;;;;29.00;16.30;;;564.10;1868.80;;;;;;4996834;28;20022;-81
2021/10/05 15:54:25;;;;;;;22.73;14.15;;;564.00;1868.80;;;;;;4996821;28;20558;-82
2021/10/05 15:56:51;;;;;;;21.17;10.63;;;563.80;1894.40;;;;;;4996546;28;20058;-81
2021/10/05 15:59:17;;;;;;;19.90;11.23;;;563.70;1868.80;;;;;;4997048;28;20462;-80
2021/10/05 16:01:43;;;;;;;20.67;11.32;;;563.70;1894.40;;;;;;4998790;28;20045;-81
2021/10/05 16:04:10;;;;;;;19.20;12.23;;;563.60;1894.40;;;;;;4996493;28;20161;-79
2021/10/05 16:06:37;;;;;;;14.70;9.30;;;563.30;1920.00;;;;;;4997680;28;20029;-81
2021/10/05 16:09:03;;;;;;;16.02;9.82;;;563.30;1894.40;;;;;;4997231;28;20038;-79
2021/10/05 16:11:30;;;;;;;17.58;10.48;;;563.40;1920.00;;;;;;4998344;28;20436;-81
2021/10/05 16:13:56;;;;;;;18.67;13.18;;;563.30;1945.60;;;;;;4998924;28;20137;-79
2021/10/05 16:16:22;;;;;;;12.57;8.48;;;538.50;1945.60;;;;;;4980830;28;20033;-80
2021/10/05 16:18:47;;;;;;;18.75;11.98;;;538.50;1894.40;;;;;;4996071;28;20113;-81
2021/10/05 16:21:13;;;;;;;15.68;11.85;;;538.50;1920.00;;;;;;4995762;28;20034;-79
2021/10/05 16:23:39;;;;;;;24.10;16.42;;;538.40;1945.60;;;;;;4995817;28;20493;-80
2021/10/05 16:26:05;;;;;;;26.13;17.48;;;538.20;1945.60;;;;;;4995802;28;20049;-81
2021/10/05 16:28:31;;;;;;;27.85;18.95;;;538.20;1971.20;;;;;;4996577;28;20030;-80
2021/10/05 16:30:57;;;;;;;32.78;19.30;;;538.10;1971.20;;;;;;4995606;28;20031;-81
2021/10/05 16:33:25;;;;;;;27.40;19.25;;;538.00;1971.20;;;;;;4994775;28;20022;-80
2021/10/05 16:35:51;;;;;;;34.40;21.15;;;537.90;1996.80;;;;;;4994392;28;20053;-79